sensor_id;sensor_type;location;lat;lon;timestamp;P1;durP1;ratioP1;P2;durP2;ratioP2
77085;SDS011;66014;53.134;18.006;2023-11-22T00:02:05;14.80;;;6.70;;
77085;SDS011;66014;53.134;18.006;2023-11-22T00:04:31;14.80;;;6.90;;
77085;SDS011;66014;53.134;18.006;2023-11-22T00:06:56;13.90;;;6.50;;
77085;SDS011;66014;53.134;18.006;2023-11-22T00:09:22;14.80;;;6.70;;
77085;SDS011;66014;53.134;18.006;2023-11-22T00:11:48;17.20;;;6.90;;
77085;SDS011;66014;53.134;18.006;2023-11-22T00:14:15;15.40;;;6.00;;
77085;SDS011;66014;53.134;18.006;2023-11-22T00:16:41;19.70;;;7.30;;
77085;SDS011;66014;53.134;18.006;2023-11-22T00:19:08;15.30;;;6.80;;
77085;SDS011;66014;53.134;18.006;2023-11-22T00:21:34;16.40;;;6.90;;
77085;SDS011;66014;53.134;18.006;2023-11-22T00:24:01;13.40;;;6.50;;
77085;SDS011;66014;53.134;18.006;2023-11-22T00:26:27;15.50;;;6.40;;
77085;SDS011;66014;53.134;18.006;2023-11-22T00:28:53;15.10;;;7.40;;
77085;SDS011;66014;53.134;18.006;2023-11-22T00:31:20;16.40;;;7.40;;
77085;SDS011;66014;53.134;18.006;2023-11-22T00:33:46;16.40;;;7.00;;
77085;SDS011;66014;53.134;18.006;2023-11-22T00:36:12;18.90;;;7.40;;
77085;SDS011;66014;53.134;18.006;2023-11-22T00:38:38;17.10;;;6.80;;
77085;SDS011;66014;53.134;18.006;2023-11-22T00:41:05;15.40;;;6.70;;
77085;SDS011;66014;53.134;18.006;2023-11-22T00:43:33;20.00;;;7.50;;
77085;SDS011;66014;53.134;18.006;2023-11-22T00:45:59;14.90;;;7.10;;
77085;SDS011;66014;53.134;18.006;2023-11-22T00:48:25;15.00;;;7.30;;
77085;SDS011;66014;53.134;18.006;2023-11-22T00:50:50;15.00;;;7.60;;
77085;SDS011;66014;53.134;18.006;2023-11-22T00:53:16;15.30;;;6.90;;
77085;SDS011;66014;53.134;18.006;2023-11-22T00:55:43;18.50;;;7.70;;
77085;SDS011;66014;53.134;18.006;2023-11-22T00:58:09;13.70;;;6.50;;
77085;SDS011;66014;53.134;18.006;2023-11-22T01:00:35;18.60;;;8.00;;
77085;SDS011;66014;53.134;18.006;2023-11-22T01:03:03;13.40;;;6.60;;
77085;SDS011;66014;53.134;18.006;2023-11-22T01:05:30;15.60;;;6.40;;
77085;SDS011;66014;53.134;18.006;2023-11-22T01:07:56;16.40;;;7.30;;
77085;SDS011;66014;53.134;18.006;2023-11-22T01:10:22;17.70;;;7.70;;
77085;SDS011;66014;53.134;18.006;2023-11-22T01:12:48;17.20;;;7.20;;
77085;SDS011;66014;53.134;18.006;2023-11-22T01:15:13;14.10;;;7.50;;
77085;SDS011;66014;53.134;18.006;2023-11-22T01:17:39;15.60;;;7.40;;
77085;SDS011;66014;53.134;18.006;2023-11-22T01:20:05;17.60;;;7.40;;
77085;SDS011;66014;53.134;18.006;2023-11-22T01:22:36;17.70;;;7.40;;
77085;SDS011;66014;53.134;18.006;2023-11-22T01:25:04;15.60;;;7.20;;
77085;SDS011;66014;53.134;18.006;2023-11-22T01:27:30;19.80;;;7.30;;
77085;SDS011;66014;53.134;18.006;2023-11-22T01:29:56;15.50;;;7.80;;
77085;SDS011;66014;53.134;18.006;2023-11-22T01:32:23;15.30;;;7.10;;
77085;SDS011;66014;53.134;18.006;2023-11-22T01:34:49;14.60;;;7.40;;
77085;SDS011;66014;53.134;18.006;2023-11-22T01:37:15;18.20;;;7.60;;
77085;SDS011;66014;53.134;18.006;2023-11-22T01:39:41;25.80;;;8.90;;
77085;SDS011;66014;53.134;18.006;2023-11-22T01:42:07;23.40;;;8.50;;
77085;SDS011;66014;53.134;18.006;2023-11-22T01:44:35;23.70;;;8.60;;
77085;SDS011;66014;53.134;18.006;2023-11-22T01:47:01;23.60;;;8.30;;
77085;SDS011;66014;53.134;18.006;2023-11-22T01:49:29;29.00;;;9.40;;
77085;SDS011;66014;53.134;18.006;2023-11-22T01:51:55;27.30;;;10.00;;
77085;SDS011;66014;53.134;18.006;2023-11-22T01:54:21;26.00;;;9.10;;
77085;SDS011;66014;53.134;18.006;2023-11-22T01:56:48;22.10;;;9.50;;
77085;SDS011;66014;53.134;18.006;2023-11-22T01:59:15;25.90;;;9.70;;
77085;SDS011;66014;53.134;18.006;2023-11-22T02:01:42;23.70;;;7.90;;
77085;SDS011;66014;53.134;18.006;2023-11-22T02:04:09;22.40;;;8.00;;
77085;SDS011;66014;53.134;18.006;2023-11-22T02:06:35;25.90;;;9.30;;
77085;SDS011;66014;53.134;18.006;2023-11-22T02:09:02;18.50;;;7.70;;
77085;SDS011;66014;53.134;18.006;2023-11-22T02:11:28;21.80;;;7.80;;
77085;SDS011;66014;53.134;18.006;2023-11-22T02:13:54;22.10;;;8.30;;
77085;SDS011;66014;53.134;18.006;2023-11-22T02:16:21;21.50;;;8.40;;
77085;SDS011;66014;53.134;18.006;2023-11-22T02:18:48;25.40;;;9.40;;
77085;SDS011;66014;53.134;18.006;2023-11-22T02:21:18;26.60;;;9.70;;
77085;SDS011;66014;53.134;18.006;2023-11-22T02:23:44;23.60;;;8.50;;
77085;SDS011;66014;53.134;18.006;2023-11-22T02:26:10;20.80;;;7.70;;
77085;SDS011;66014;53.134;18.006;2023-11-22T02:28:37;18.60;;;8.00;;
77085;SDS011;66014;53.134;18.006;2023-11-22T02:31:03;19.30;;;8.50;;
77085;SDS011;66014;53.134;18.006;2023-11-22T02:33:29;16.80;;;6.80;;
77085;SDS011;66014;53.134;18.006;2023-11-22T02:35:57;21.50;;;8.30;;
77085;SDS011;66014;53.134;18.006;2023-11-22T02:38:22;16.70;;;7.40;;
77085;SDS011;66014;53.134;18.006;2023-11-22T02:40:48;19.30;;;7.90;;
77085;SDS011;66014;53.134;18.006;2023-11-22T02:43:15;17.10;;;7.80;;
77085;SDS011;66014;53.134;18.006;2023-11-22T02:45:41;16.60;;;8.20;;
77085;SDS011;66014;53.134;18.006;2023-11-22T02:48:08;17.00;;;7.10;;
77085;SDS011;66014;53.134;18.006;2023-11-22T02:50:35;15.10;;;7.40;;
77085;SDS011;66014;53.134;18.006;2023-11-22T02:53:03;16.20;;;6.80;;
77085;SDS011;66014;53.134;18.006;2023-11-22T02:55:29;16.90;;;7.50;;
77085;SDS011;66014;53.134;18.006;2023-11-22T02:57:58;20.80;;;8.00;;
77085;SDS011;66014;53.134;18.006;2023-11-22T03:00:23;41.40;;;20.80;;
77085;SDS011;66014;53.134;18.006;2023-11-22T03:02:51;18.80;;;8.90;;
77085;SDS011;66014;53.134;18.006;2023-11-22T03:05:22;17.30;;;8.50;;
77085;SDS011;66014;53.134;18.006;2023-11-22T03:07:48;19.10;;;8.40;;
77085;SDS011;66014;53.134;18.006;2023-11-22T03:10:16;20.60;;;9.20;;
77085;SDS011;66014;53.134;18.006;2023-11-22T03:12:44;19.00;;;8.70;;
77085;SDS011;66014;53.134;18.006;2023-11-22T03:15:10;20.70;;;10.10;;
77085;SDS011;66014;53.134;18.006;2023-11-22T03:17:37;18.20;;;7.90;;
77085;SDS011;66014;53.134;18.006;2023-11-22T03:20:04;19.40;;;8.30;;
77085;SDS011;66014;53.134;18.006;2023-11-22T03:22:34;19.20;;;8.60;;
77085;SDS011;66014;53.134;18.006;2023-11-22T03:25:04;18.30;;;8.20;;
77085;SDS011;66014;53.134;18.006;2023-11-22T03:27:30;19.10;;;9.30;;
77085;SDS011;66014;53.134;18.006;2023-11-22T03:29:56;22.50;;;8.70;;
77085;SDS011;66014;53.134;18.006;2023-11-22T03:32:22;17.30;;;8.50;;
77085;SDS011;66014;53.134;18.006;2023-11-22T03:34:47;22.60;;;7.90;;
77085;SDS011;66014;53.134;18.006;2023-11-22T03:37:13;18.10;;;8.40;;
77085;SDS011;66014;53.134;18.006;2023-11-22T03:39:39;18.60;;;8.20;;
77085;SDS011;66014;53.134;18.006;2023-11-22T03:42:05;20.10;;;8.70;;
77085;SDS011;66014;53.134;18.006;2023-11-22T03:44:31;18.50;;;8.30;;
77085;SDS011;66014;53.134;18.006;2023-11-22T03:46:57;19.30;;;8.50;;
77085;SDS011;66014;53.134;18.006;2023-11-22T03:49:23;17.80;;;9.00;;
77085;SDS011;66014;53.134;18.006;2023-11-22T03:51:49;18.60;;;7.90;;
77085;SDS011;66014;53.134;18.006;2023-11-22T03:54:15;19.60;;;8.30;;
77085;SDS011;66014;53.134;18.006;2023-11-22T03:56:41;18.90;;;8.50;;
77085;SDS011;66014;53.134;18.006;2023-11-22T03:59:07;18.80;;;8.00;;
77085;SDS011;66014;53.134;18.006;2023-11-22T04:01:33;22.00;;;9.30;;
77085;SDS011;66014;53.134;18.006;2023-11-22T04:03:59;18.30;;;8.30;;
77085;SDS011;66014;53.134;18.006;2023-11-22T04:06:24;18.00;;;8.30;;
77085;SDS011;66014;53.134;18.006;2023-11-22T04:08:50;20.10;;;9.50;;
77085;SDS011;66014;53.134;18.006;2023-11-22T04:11:18;22.30;;;9.20;;
77085;SDS011;66014;53.134;18.006;2023-11-22T04:13:45;22.20;;;9.60;;
77085;SDS011;66014;53.134;18.006;2023-11-22T04:16:10;22.30;;;10.30;;
77085;SDS011;66014;53.134;18.006;2023-11-22T04:18:40;33.90;;;15.20;;
77085;SDS011;66014;53.134;18.006;2023-11-22T04:21:07;23.30;;;11.20;;
77085;SDS011;66014;53.134;18.006;2023-11-22T04:23:34;24.80;;;10.60;;
77085;SDS011;66014;53.134;18.006;2023-11-22T04:26:02;27.10;;;13.50;;
77085;SDS011;66014;53.134;18.006;2023-11-22T04:28:28;25.50;;;12.60;;
77085;SDS011;66014;53.134;18.006;2023-11-22T04:30:55;34.70;;;15.10;;
77085;SDS011;66014;53.134;18.006;2023-11-22T04:33:22;29.90;;;14.30;;
77085;SDS011;66014;53.134;18.006;2023-11-22T04:35:49;26.50;;;11.80;;
77085;SDS011;66014;53.134;18.006;2023-11-22T04:38:15;27.70;;;12.40;;
77085;SDS011;66014;53.134;18.006;2023-11-22T04:40:41;26.40;;;12.60;;
77085;SDS011;66014;53.134;18.006;2023-11-22T04:43:10;25.20;;;12.50;;
77085;SDS011;66014;53.134;18.006;2023-11-22T04:45:36;25.00;;;11.80;;
77085;SDS011;66014;53.134;18.006;2023-11-22T04:48:03;29.20;;;13.60;;
77085;SDS011;66014;53.134;18.006;2023-11-22T04:50:29;54.70;;;24.00;;
77085;SDS011;66014;53.134;18.006;2023-11-22T04:52:57;55.60;;;22.90;;
77085;SDS011;66014;53.134;18.006;2023-11-22T04:55:23;43.20;;;21.30;;
77085;SDS011;66014;53.134;18.006;2023-11-22T04:57:49;36.10;;;16.80;;
77085;SDS011;66014;53.134;18.006;2023-11-22T05:00:15;26.80;;;13.20;;
77085;SDS011;66014;53.134;18.006;2023-11-22T05:02:43;26.60;;;13.90;;
77085;SDS011;66014;53.134;18.006;2023-11-22T05:05:09;24.00;;;12.10;;
77085;SDS011;66014;53.134;18.006;2023-11-22T05:07:39;57.80;;;22.30;;
77085;SDS011;66014;53.134;18.006;2023-11-22T05:10:05;48.80;;;20.30;;
77085;SDS011;66014;53.134;18.006;2023-11-22T05:12:35;32.80;;;14.70;;
77085;SDS011;66014;53.134;18.006;2023-11-22T05:15:04;24.30;;;11.30;;
77085;SDS011;66014;53.134;18.006;2023-11-22T05:17:33;22.40;;;11.20;;
77085;SDS011;66014;53.134;18.006;2023-11-22T05:20:00;23.90;;;9.80;;
77085;SDS011;66014;53.134;18.006;2023-11-22T05:22:31;39.30;;;16.90;;
77085;SDS011;66014;53.134;18.006;2023-11-22T05:24:56;32.20;;;14.70;;
77085;SDS011;66014;53.134;18.006;2023-11-22T05:27:24;38.40;;;14.40;;
77085;SDS011;66014;53.134;18.006;2023-11-22T05:29:51;29.90;;;14.20;;
77085;SDS011;66014;53.134;18.006;2023-11-22T05:32:17;27.10;;;12.50;;
77085;SDS011;66014;53.134;18.006;2023-11-22T05:34:43;24.00;;;11.80;;
77085;SDS011;66014;53.134;18.006;2023-11-22T05:37:10;26.20;;;11.80;;
77085;SDS011;66014;53.134;18.006;2023-11-22T05:39:36;27.80;;;12.20;;
77085;SDS011;66014;53.134;18.006;2023-11-22T05:42:11;30.40;;;14.30;;
77085;SDS011;66014;53.134;18.006;2023-11-22T05:44:37;29.70;;;14.20;;
77085;SDS011;66014;53.134;18.006;2023-11-22T05:47:03;34.20;;;14.30;;
77085;SDS011;66014;53.134;18.006;2023-11-22T05:49:29;37.40;;;16.00;;
77085;SDS011;66014;53.134;18.006;2023-11-22T05:51:55;34.00;;;14.80;;
77085;SDS011;66014;53.134;18.006;2023-11-22T05:54:21;36.60;;;16.30;;
77085;SDS011;66014;53.134;18.006;2023-11-22T05:56:47;34.50;;;14.70;;
77085;SDS011;66014;53.134;18.006;2023-11-22T05:59:13;31.60;;;15.00;;
77085;SDS011;66014;53.134;18.006;2023-11-22T06:01:38;29.20;;;12.70;;
77085;SDS011;66014;53.134;18.006;2023-11-22T06:04:04;32.40;;;13.20;;
77085;SDS011;66014;53.134;18.006;2023-11-22T06:06:30;30.70;;;12.90;;
77085;SDS011;66014;53.134;18.006;2023-11-22T06:08:56;32.80;;;13.30;;
77085;SDS011;66014;53.134;18.006;2023-11-22T06:11:22;26.70;;;12.30;;
77085;SDS011;66014;53.134;18.006;2023-11-22T06:13:48;27.90;;;12.50;;
77085;SDS011;66014;53.134;18.006;2023-11-22T06:16:16;35.40;;;18.20;;
77085;SDS011;66014;53.134;18.006;2023-11-22T06:18:42;31.90;;;14.10;;
77085;SDS011;66014;53.134;18.006;2023-11-22T06:21:09;28.50;;;13.20;;
77085;SDS011;66014;53.134;18.006;2023-11-22T06:23:35;28.00;;;13.20;;
77085;SDS011;66014;53.134;18.006;2023-11-22T06:26:01;35.00;;;14.40;;
77085;SDS011;66014;53.134;18.006;2023-11-22T06:28:27;27.20;;;12.30;;
77085;SDS011;66014;53.134;18.006;2023-11-22T06:30:54;32.90;;;15.50;;
77085;SDS011;66014;53.134;18.006;2023-11-22T06:33:25;43.70;;;19.30;;
77085;SDS011;66014;53.134;18.006;2023-11-22T06:35:50;82.60;;;33.70;;
77085;SDS011;66014;53.134;18.006;2023-11-22T06:38:16;55.70;;;25.80;;
77085;SDS011;66014;53.134;18.006;2023-11-22T06:40:42;39.80;;;17.50;;
77085;SDS011;66014;53.134;18.006;2023-11-22T06:43:09;33.10;;;14.10;;
77085;SDS011;66014;53.134;18.006;2023-11-22T06:45:34;38.90;;;17.60;;
77085;SDS011;66014;53.134;18.006;2023-11-22T06:48:00;38.10;;;16.40;;
77085;SDS011;66014;53.134;18.006;2023-11-22T06:50:27;42.20;;;20.90;;
77085;SDS011;66014;53.134;18.006;2023-11-22T06:52:52;37.50;;;16.30;;
77085;SDS011;66014;53.134;18.006;2023-11-22T06:55:21;39.10;;;17.90;;
77085;SDS011;66014;53.134;18.006;2023-11-22T06:57:47;43.60;;;19.20;;
77085;SDS011;66014;53.134;18.006;2023-11-22T07:00:14;35.80;;;16.10;;
77085;SDS011;66014;53.134;18.006;2023-11-22T07:02:42;48.90;;;24.20;;
77085;SDS011;66014;53.134;18.006;2023-11-22T07:05:08;35.30;;;15.10;;
77085;SDS011;66014;53.134;18.006;2023-11-22T07:07:34;27.10;;;14.30;;
77085;SDS011;66014;53.134;18.006;2023-11-22T07:10:04;36.70;;;15.20;;
77085;SDS011;66014;53.134;18.006;2023-11-22T07:12:33;24.80;;;10.90;;
77085;SDS011;66014;53.134;18.006;2023-11-22T07:15:00;37.90;;;18.20;;
77085;SDS011;66014;53.134;18.006;2023-11-22T07:17:27;30.30;;;14.60;;
77085;SDS011;66014;53.134;18.006;2023-11-22T07:19:55;40.10;;;19.30;;
77085;SDS011;66014;53.134;18.006;2023-11-22T07:22:21;37.40;;;18.60;;
77085;SDS011;66014;53.134;18.006;2023-11-22T07:24:48;38.00;;;20.70;;
77085;SDS011;66014;53.134;18.006;2023-11-22T07:27:17;36.10;;;18.40;;
77085;SDS011;66014;53.134;18.006;2023-11-22T07:29:44;82.40;;;29.30;;
77085;SDS011;66014;53.134;18.006;2023-11-22T07:32:11;42.80;;;19.70;;
77085;SDS011;66014;53.134;18.006;2023-11-22T07:34:38;44.80;;;21.10;;
77085;SDS011;66014;53.134;18.006;2023-11-22T07:37:05;42.20;;;20.10;;
77085;SDS011;66014;53.134;18.006;2023-11-22T07:39:35;111.60;;;42.90;;
77085;SDS011;66014;53.134;18.006;2023-11-22T07:42:02;65.30;;;28.20;;
77085;SDS011;66014;53.134;18.006;2023-11-22T07:44:28;42.90;;;21.50;;
77085;SDS011;66014;53.134;18.006;2023-11-22T07:46:58;52.00;;;21.00;;
77085;SDS011;66014;53.134;18.006;2023-11-22T07:49:25;120.20;;;40.30;;
77085;SDS011;66014;53.134;18.006;2023-11-22T07:51:52;66.10;;;23.60;;
77085;SDS011;66014;53.134;18.006;2023-11-22T07:54:21;71.90;;;27.20;;
77085;SDS011;66014;53.134;18.006;2023-11-22T07:56:48;54.80;;;24.00;;
77085;SDS011;66014;53.134;18.006;2023-11-22T07:59:15;54.00;;;22.60;;
77085;SDS011;66014;53.134;18.006;2023-11-22T08:01:44;48.90;;;21.90;;
77085;SDS011;66014;53.134;18.006;2023-11-22T08:04:13;56.40;;;24.40;;
77085;SDS011;66014;53.134;18.006;2023-11-22T08:06:39;60.30;;;25.10;;
77085;SDS011;66014;53.134;18.006;2023-11-22T08:09:06;46.90;;;22.50;;
77085;SDS011;66014;53.134;18.006;2023-11-22T08:11:34;45.60;;;20.90;;
77085;SDS011;66014;53.134;18.006;2023-11-22T08:14:01;51.20;;;22.00;;
77085;SDS011;66014;53.134;18.006;2023-11-22T08:16:28;55.10;;;26.10;;
77085;SDS011;66014;53.134;18.006;2023-11-22T08:18:54;63.80;;;27.10;;
77085;SDS011;66014;53.134;18.006;2023-11-22T08:21:22;46.60;;;22.30;;
77085;SDS011;66014;53.134;18.006;2023-11-22T08:23:50;46.30;;;21.00;;
77085;SDS011;66014;53.134;18.006;2023-11-22T08:26:16;45.00;;;22.70;;
77085;SDS011;66014;53.134;18.006;2023-11-22T08:28:42;46.40;;;22.30;;
77085;SDS011;66014;53.134;18.006;2023-11-22T08:31:11;53.40;;;28.40;;
77085;SDS011;66014;53.134;18.006;2023-11-22T08:33:38;51.20;;;27.00;;
77085;SDS011;66014;53.134;18.006;2023-11-22T08:36:10;49.50;;;25.00;;
77085;SDS011;66014;53.134;18.006;2023-11-22T08:39:21;39.70;;;19.40;;
77085;SDS011;66014;53.134;18.006;2023-11-22T08:41:47;46.10;;;24.30;;
77085;SDS011;66014;53.134;18.006;2023-11-22T08:44:43;43.20;;;22.50;;
77085;SDS011;66014;53.134;18.006;2023-11-22T08:47:09;66.30;;;29.60;;
77085;SDS011;66014;53.134;18.006;2023-11-22T08:49:36;69.40;;;26.70;;
77085;SDS011;66014;53.134;18.006;2023-11-22T08:56:18;49.50;;;22.60;;
77085;SDS011;66014;53.134;18.006;2023-11-22T09:05:33;84.70;;;45.20;;
77085;SDS011;66014;53.134;18.006;2023-11-22T09:07:58;55.60;;;31.10;;
77085;SDS011;66014;53.134;18.006;2023-11-22T09:10:24;38.30;;;21.70;;
77085;SDS011;66014;53.134;18.006;2023-11-22T09:12:51;40.40;;;20.40;;
77085;SDS011;66014;53.134;18.006;2023-11-22T09:15:18;37.70;;;18.60;;
77085;SDS011;66014;53.134;18.006;2023-11-22T09:21:46;25.30;;;14.00;;
77085;SDS011;66014;53.134;18.006;2023-11-22T09:27:04;31.10;;;15.10;;
77085;SDS011;66014;53.134;18.006;2023-11-22T09:29:36;42.70;;;20.60;;
77085;SDS011;66014;53.134;18.006;2023-11-22T09:32:01;29.40;;;13.20;;
77085;SDS011;66014;53.134;18.006;2023-11-22T09:34:28;40.50;;;17.70;;
77085;SDS011;66014;53.134;18.006;2023-11-22T09:36:55;29.20;;;14.30;;
77085;SDS011;66014;53.134;18.006;2023-11-22T09:39:21;24.00;;;11.80;;
77085;SDS011;66014;53.134;18.006;2023-11-22T09:41:47;26.60;;;12.70;;
77085;SDS011;66014;53.134;18.006;2023-11-22T09:44:15;25.30;;;14.60;;
77085;SDS011;66014;53.134;18.006;2023-11-22T09:46:42;24.40;;;12.50;;
77085;SDS011;66014;53.134;18.006;2023-11-22T09:49:08;24.10;;;12.30;;
77085;SDS011;66014;53.134;18.006;2023-11-22T09:51:40;22.20;;;12.10;;
77085;SDS011;66014;53.134;18.006;2023-11-22T09:54:09;24.00;;;13.10;;
77085;SDS011;66014;53.134;18.006;2023-11-22T09:56:40;25.30;;;12.90;;
77085;SDS011;66014;53.134;18.006;2023-11-22T09:59:07;24.40;;;13.90;;
77085;SDS011;66014;53.134;18.006;2023-11-22T10:01:37;34.90;;;18.30;;
77085;SDS011;66014;53.134;18.006;2023-11-22T10:04:04;30.50;;;16.00;;
77085;SDS011;66014;53.134;18.006;2023-11-22T10:06:31;41.10;;;17.40;;
77085;SDS011;66014;53.134;18.006;2023-11-22T10:09:03;32.30;;;13.70;;
77085;SDS011;66014;53.134;18.006;2023-11-22T10:11:34;36.10;;;14.60;;
77085;SDS011;66014;53.134;18.006;2023-11-22T10:14:06;39.30;;;16.50;;
77085;SDS011;66014;53.134;18.006;2023-11-22T10:16:33;28.00;;;13.90;;
77085;SDS011;66014;53.134;18.006;2023-11-22T10:18:59;26.40;;;13.40;;
77085;SDS011;66014;53.134;18.006;2023-11-22T10:21:25;46.60;;;20.10;;
77085;SDS011;66014;53.134;18.006;2023-11-22T10:23:55;29.90;;;11.00;;
77085;SDS011;66014;53.134;18.006;2023-11-22T10:26:24;23.40;;;10.20;;
77085;SDS011;66014;53.134;18.006;2023-11-22T10:28:53;34.00;;;13.20;;
77085;SDS011;66014;53.134;18.006;2023-11-22T10:31:23;42.60;;;20.50;;
77085;SDS011;66014;53.134;18.006;2023-11-22T10:33:50;38.30;;;21.00;;
77085;SDS011;66014;53.134;18.006;2023-11-22T10:36:18;36.80;;;19.80;;
77085;SDS011;66014;53.134;18.006;2023-11-22T10:38:49;28.10;;;15.30;;
77085;SDS011;66014;53.134;18.006;2023-11-22T10:41:30;26.30;;;13.20;;
77085;SDS011;66014;53.134;18.006;2023-11-22T10:43:57;26.60;;;14.20;;
77085;SDS011;66014;53.134;18.006;2023-11-22T10:46:29;21.40;;;11.00;;
77085;SDS011;66014;53.134;18.006;2023-11-22T10:48:58;16.10;;;7.80;;
77085;SDS011;66014;53.134;18.006;2023-11-22T10:51:29;18.20;;;10.20;;
77085;SDS011;66014;53.134;18.006;2023-11-22T10:53:56;37.90;;;16.00;;
77085;SDS011;66014;53.134;18.006;2023-11-22T10:56:23;22.90;;;10.30;;
77085;SDS011;66014;53.134;18.006;2023-11-22T10:58:52;27.40;;;13.70;;
77085;SDS011;66014;53.134;18.006;2023-11-22T11:01:25;31.40;;;14.10;;
77085;SDS011;66014;53.134;18.006;2023-11-22T11:03:55;15.00;;;7.70;;
77085;SDS011;66014;53.134;18.006;2023-11-22T11:06:32;19.00;;;9.00;;
77085;SDS011;66014;53.134;18.006;2023-11-22T11:09:00;41.20;;;18.20;;
77085;SDS011;66014;53.134;18.006;2023-11-22T11:11:35;38.30;;;21.20;;
77085;SDS011;66014;53.134;18.006;2023-11-22T11:14:06;18.00;;;9.80;;
77085;SDS011;66014;53.134;18.006;2023-11-22T11:19:04;21.30;;;9.60;;
77085;SDS011;66014;53.134;18.006;2023-11-22T11:21:33;19.30;;;9.00;;
77085;SDS011;66014;53.134;18.006;2023-11-22T11:24:02;14.20;;;7.20;;
77085;SDS011;66014;53.134;18.006;2023-11-22T11:26:29;14.90;;;6.40;;
77085;SDS011;66014;53.134;18.006;2023-11-22T11:28:58;18.60;;;9.10;;
77085;SDS011;66014;53.134;18.006;2023-11-22T11:31:24;11.40;;;7.00;;
77085;SDS011;66014;53.134;18.006;2023-11-22T11:34:05;15.50;;;8.30;;
77085;SDS011;66014;53.134;18.006;2023-11-22T11:36:32;18.50;;;8.10;;
77085;SDS011;66014;53.134;18.006;2023-11-22T11:39:02;15.10;;;7.70;;
77085;SDS011;66014;53.134;18.006;2023-11-22T11:41:40;17.60;;;9.50;;
77085;SDS011;66014;53.134;18.006;2023-11-22T11:44:10;22.00;;;11.30;;
77085;SDS011;66014;53.134;18.006;2023-11-22T11:46:37;17.90;;;9.10;;
77085;SDS011;66014;53.134;18.006;2023-11-22T11:49:06;23.10;;;12.40;;
77085;SDS011;66014;53.134;18.006;2023-11-22T11:51:36;19.30;;;9.00;;
77085;SDS011;66014;53.134;18.006;2023-11-22T11:54:04;12.90;;;6.70;;
77085;SDS011;66014;53.134;18.006;2023-11-22T11:56:35;19.50;;;10.70;;
77085;SDS011;66014;53.134;18.006;2023-11-22T11:59:03;14.40;;;7.60;;
77085;SDS011;66014;53.134;18.006;2023-11-22T12:01:31;15.40;;;8.00;;
77085;SDS011;66014;53.134;18.006;2023-11-22T12:04:00;15.80;;;7.20;;
77085;SDS011;66014;53.134;18.006;2023-11-22T12:06:28;14.30;;;7.10;;
77085;SDS011;66014;53.134;18.006;2023-11-22T12:08:57;14.90;;;6.80;;
77085;SDS011;66014;53.134;18.006;2023-11-22T12:11:25;17.40;;;8.10;;
77085;SDS011;66014;53.134;18.006;2023-11-22T12:13:51;20.60;;;9.60;;
77085;SDS011;66014;53.134;18.006;2023-11-22T12:16:19;20.40;;;9.80;;
77085;SDS011;66014;53.134;18.006;2023-11-22T12:18:47;18.30;;;9.80;;
77085;SDS011;66014;53.134;18.006;2023-11-22T12:21:16;19.00;;;7.00;;
77085;SDS011;66014;53.134;18.006;2023-11-22T12:23:43;20.50;;;8.10;;
77085;SDS011;66014;53.134;18.006;2023-11-22T12:26:16;13.00;;;6.00;;
77085;SDS011;66014;53.134;18.006;2023-11-22T12:28:46;14.80;;;8.10;;
77085;SDS011;66014;53.134;18.006;2023-11-22T12:31:16;14.90;;;6.80;;
77085;SDS011;66014;53.134;18.006;2023-11-22T12:33:43;18.10;;;7.90;;
77085;SDS011;66014;53.134;18.006;2023-11-22T12:36:10;16.10;;;7.60;;
77085;SDS011;66014;53.134;18.006;2023-11-22T12:38:40;18.10;;;8.50;;
77085;SDS011;66014;53.134;18.006;2023-11-22T12:41:06;15.30;;;6.90;;
77085;SDS011;66014;53.134;18.006;2023-11-22T12:43:33;25.80;;;12.60;;
77085;SDS011;66014;53.134;18.006;2023-11-22T12:46:04;19.10;;;8.70;;
77085;SDS011;66014;53.134;18.006;2023-11-22T12:48:39;17.80;;;8.00;;
77085;SDS011;66014;53.134;18.006;2023-11-22T12:51:16;15.50;;;7.10;;
77085;SDS011;66014;53.134;18.006;2023-11-22T12:53:45;16.80;;;7.00;;
77085;SDS011;66014;53.134;18.006;2023-11-22T12:56:15;14.10;;;7.10;;
77085;SDS011;66014;53.134;18.006;2023-11-22T12:58:41;13.40;;;6.10;;
77085;SDS011;66014;53.134;18.006;2023-11-22T13:01:07;13.80;;;6.80;;
77085;SDS011;66014;53.134;18.006;2023-11-22T13:03:33;21.40;;;10.00;;
77085;SDS011;66014;53.134;18.006;2023-11-22T13:05:59;22.90;;;10.90;;
77085;SDS011;66014;53.134;18.006;2023-11-22T13:08:25;36.70;;;16.60;;
77085;SDS011;66014;53.134;18.006;2023-11-22T13:10:55;21.20;;;11.30;;
77085;SDS011;66014;53.134;18.006;2023-11-22T13:13:26;16.20;;;8.30;;
77085;SDS011;66014;53.134;18.006;2023-11-22T13:15:53;14.70;;;7.00;;
77085;SDS011;66014;53.134;18.006;2023-11-22T13:18:22;17.80;;;9.20;;
77085;SDS011;66014;53.134;18.006;2023-11-22T13:20:50;18.90;;;9.50;;
77085;SDS011;66014;53.134;18.006;2023-11-22T13:23:20;20.50;;;9.30;;
77085;SDS011;66014;53.134;18.006;2023-11-22T13:25:46;16.50;;;6.80;;
77085;SDS011;66014;53.134;18.006;2023-11-22T13:28:12;15.60;;;7.40;;
77085;SDS011;66014;53.134;18.006;2023-11-22T13:30:39;15.90;;;7.70;;
77085;SDS011;66014;53.134;18.006;2023-11-22T13:33:04;21.30;;;7.70;;
77085;SDS011;66014;53.134;18.006;2023-11-22T13:35:45;16.90;;;8.30;;
77085;SDS011;66014;53.134;18.006;2023-11-22T13:38:17;16.30;;;7.50;;
77085;SDS011;66014;53.134;18.006;2023-11-22T13:40:45;18.30;;;9.10;;
77085;SDS011;66014;53.134;18.006;2023-11-22T13:43:13;14.70;;;7.20;;
77085;SDS011;66014;53.134;18.006;2023-11-22T13:45:39;16.40;;;9.30;;
77085;SDS011;66014;53.134;18.006;2023-11-22T13:48:10;17.50;;;10.10;;
77085;SDS011;66014;53.134;18.006;2023-11-22T13:50:37;18.60;;;9.30;;
77085;SDS011;66014;53.134;18.006;2023-11-22T13:53:03;17.40;;;8.80;;
77085;SDS011;66014;53.134;18.006;2023-11-22T13:55:30;21.70;;;9.80;;
77085;SDS011;66014;53.134;18.006;2023-11-22T13:58:01;24.50;;;11.00;;
77085;SDS011;66014;53.134;18.006;2023-11-22T14:00:27;15.40;;;8.80;;
77085;SDS011;66014;53.134;18.006;2023-11-22T14:03:03;22.60;;;10.60;;
77085;SDS011;66014;53.134;18.006;2023-11-22T14:05:38;18.80;;;8.90;;
77085;SDS011;66014;53.134;18.006;2023-11-22T14:08:04;24.10;;;11.50;;
77085;SDS011;66014;53.134;18.006;2023-11-22T14:10:38;22.80;;;9.90;;
77085;SDS011;66014;53.134;18.006;2023-11-22T14:13:10;22.10;;;11.60;;
77085;SDS011;66014;53.134;18.006;2023-11-22T14:15:37;23.20;;;9.40;;
77085;SDS011;66014;53.134;18.006;2023-11-22T14:18:06;30.40;;;13.50;;
77085;SDS011;66014;53.134;18.006;2023-11-22T14:20:32;27.40;;;13.90;;
77085;SDS011;66014;53.134;18.006;2023-11-22T14:23:00;28.90;;;11.40;;
77085;SDS011;66014;53.134;18.006;2023-11-22T14:25:26;36.00;;;18.00;;
77085;SDS011;66014;53.134;18.006;2023-11-22T14:27:55;27.50;;;13.00;;
77085;SDS011;66014;53.134;18.006;2023-11-22T14:30:22;26.90;;;11.70;;
77085;SDS011;66014;53.134;18.006;2023-11-22T14:32:51;19.00;;;9.70;;
77085;SDS011;66014;53.134;18.006;2023-11-22T14:35:20;31.70;;;13.20;;
77085;SDS011;66014;53.134;18.006;2023-11-22T14:37:46;22.10;;;10.40;;
77085;SDS011;66014;53.134;18.006;2023-11-22T14:40:13;35.40;;;12.30;;